Time;durP1;ratioP1;P1;durP2;ratioP2;P2;SDS_P1;SDS_P2;PMS_P1;PMS_P2;Temp;Humidity;BMP_temperature;BMP_pressure;BME280_temperature;BME280_humidity;BME280_pressure;Samples;Min_cycle;Max_cycle;Signal;HPM_P1;HPM_P2
2022/06/01 00:01:02;;;;;;;8.90;6.67;;;;;;;;;;5009805;28;20487;-67
2022/06/01 00:03:34;;;;;;;6.40;5.90;;;;;;;;;;5010079;28;20712;-68
2022/06/01 00:06:00;;;;;;;11.33;6.77;;;;;;;;;;5009644;28;20696;-67
2022/06/01 00:08:26;;;;;;;9.33;6.60;;;;;;;;;;5008494;28;20458;-69
2022/06/01 00:10:53;;;;;;;9.43;6.40;;;;;;;;;;5009201;28;20172;-68
2022/06/01 00:13:19;;;;;;;7.67;6.97;;;;;;;;;;5009339;28;20451;-69
2022/06/01 00:15:46;;;;;;;6.83;6.17;;;;;;;;;;5008722;28;20542;-67
2022/06/01 00:18:12;;;;;;;7.40;6.33;;;;;;;;;;5007954;28;20198;-68
2022/06/01 00:20:38;;;;;;;8.10;7.30;;;;;;;;;;5008377;28;20962;-69
2022/06/01 00:23:06;;;;;;;8.40;6.83;;;;;;;;;;5008852;28;20396;-69
2022/06/01 00:25:32;;;;;;;7.33;6.27;;;;;;;;;;5009518;28;20777;-67
2022/06/01 00:27:58;;;;;;;13.40;7.23;;;;;;;;;;5034012;23;20433;-69
2022/06/01 00:30:24;;;;;;;7.40;6.60;;;;;;;;;;5048298;28;20758;-71
2022/06/01 00:32:50;;;;;;;8.00;7.20;;;;;;;;;;5048738;28;20485;-70
2022/06/01 00:35:17;;;;;;;13.23;7.20;;;;;;;;;;5047799;28;20445;-71
2022/06/01 00:37:43;;;;;;;7.20;6.50;;;;;;;;;;5048193;28;20924;-69
2022/06/01 00:40:10;;;;;;;7.50;6.80;;;;;;;;;;5048517;28;20897;-69
2022/06/01 00:42:38;;;;;;;8.10;7.30;;;;;;;;;;5049547;28;20398;-69
2022/06/01 00:45:05;;;;;;;7.13;6.53;;;;;;;;;;5048399;28;20397;-70
2022/06/01 00:47:31;;;;;;;7.73;6.93;;;;;;;;;;5048073;28;20417;-70
2022/06/01 00:49:57;;;;;;;9.20;8.40;;;;;;;;;;5044739;28;20417;-68
2022/06/01 00:52:35;;;;;;;14.43;9.73;;;;;;;;;;5029323;28;20402;-68
2022/06/01 00:55:21;;;;;;;9.63;7.97;;;;;;;;;;5029065;28;20238;-68
2022/06/01 00:57:49;;;;;;;7.70;7.00;;;;;;;;;;5028615;28;20410;-68
2022/06/01 01:00:21;;;;;;;9.43;7.57;;;;;;;;;;5028090;28;20843;-68
2022/06/01 01:02:48;;;;;;;12.87;7.87;;;;;;;;;;5029100;28;20394;-69
2022/06/01 01:05:15;;;;;;;8.70;7.27;;;;;;;;;;5027790;28;20476;-69
2022/06/01 01:07:42;;;;;;;8.07;7.37;;;;;;;;;;5028286;28;20976;-69
2022/06/01 01:10:09;;;;;;;10.23;7.93;;;;;;;;;;5028496;28;20928;-69
2022/06/01 01:15:20;;;;;;;7.70;7.10;;;;;;;;;;5020935;28;20485;-68
2022/06/01 01:17:49;;;;;;;8.40;7.60;;;;;;;;;;5027305;28;20847;-68
2022/06/01 01:20:16;;;;;;;8.03;7.20;;;;;;;;;;5027574;28;20456;-68
2022/06/01 01:23:14;;;;;;;10.10;7.67;;;;;;;;;;5030568;28;20406;-68
2022/06/01 01:25:40;;;;;;;7.80;7.10;;;;;;;;;;4989550;28;20481;-67
2022/06/01 01:28:07;;;;;;;8.30;7.33;;;;;;;;;;5011744;28;20447;-67
2022/06/01 01:30:37;;;;;;;10.03;7.13;;;;;;;;;;5012710;28;20876;-67
2022/06/01 01:33:07;;;;;;;8.97;8.10;;;;;;;;;;5012542;28;21093;-67
2022/06/01 01:35:33;;;;;;;9.00;8.13;;;;;;;;;;5011138;28;20462;-68
2022/06/01 01:38:01;;;;;;;10.90;9.70;;;;;;;;;;5044036;28;20436;-68
2022/06/01 01:40:27;;;;;;;14.20;9.17;;;;;;;;;;5051849;28;20421;-68
2022/06/01 01:42:55;;;;;;;12.57;9.67;;;;;;;;;;5051787;28;20488;-69
2022/06/01 01:45:23;;;;;;;10.27;9.37;;;;;;;;;;5049713;28;20464;-68
2022/06/01 01:47:49;;;;;;;12.20;10.90;;;;;;;;;;5049929;28;20439;-67
2022/06/01 01:50:15;;;;;;;10.80;9.30;;;;;;;;;;5045341;28;20867;-68
2022/06/01 01:52:41;;;;;;;10.97;9.10;;;;;;;;;;5031583;28;20442;-66
2022/06/01 01:55:19;;;;;;;10.73;9.70;;;;;;;;;;5031639;28;20411;-68
2022/06/01 01:57:47;;;;;;;10.80;9.77;;;;;;;;;;5031089;28;20717;-67
2022/06/01 02:00:20;;;;;;;12.90;9.70;;;;;;;;;;5030608;28;20628;-68
2022/06/01 02:03:01;;;;;;;10.93;9.57;;;;;;;;;;5031763;28;20417;-68
2022/06/01 02:08:38;;;;;;;10.20;9.20;;;;;;;;;;5030188;28;20476;-67
2022/06/01 02:14:12;;;;;;;9.93;9.00;;;;;;;;;;5031005;28;20410;-70
2022/06/01 02:16:43;;;;;;;10.50;9.33;;;;;;;;;;5031533;28;20457;-70
2022/06/01 02:19:12;;;;;;;11.20;10.10;;;;;;;;;;5029989;28;20481;-70
2022/06/01 02:21:38;;;;;;;9.60;8.57;;;;;;;;;;5030433;28;20411;-70
2022/06/01 02:24:04;;;;;;;11.40;8.70;;;;;;;;;;5031041;28;20434;-71
2022/06/01 02:26:31;;;;;;;10.07;9.07;;;;;;;;;;5030755;28;20421;-70
2022/06/01 02:29:03;;;;;;;9.77;8.80;;;;;;;;;;5029397;28;20480;-71
2022/06/01 02:31:29;;;;;;;10.27;9.27;;;;;;;;;;5030663;28;20407;-68
2022/06/01 02:33:56;;;;;;;9.63;8.67;;;;;;;;;;5029873;28;20417;-70
2022/06/01 02:36:23;;;;;;;10.30;8.90;;;;;;;;;;5029335;28;20490;-71
2022/06/01 02:38:50;;;;;;;13.20;9.70;;;;;;;;;;5029231;28;20426;-70
2022/06/01 02:44:01;;;;;;;11.73;9.37;;;;;;;;;;5030136;28;20460;-71
2022/06/01 02:46:28;;;;;;;9.90;8.90;;;;;;;;;;5030004;28;20489;-70
2022/06/01 02:48:55;;;;;;;10.00;9.00;;;;;;;;;;5028703;28;20423;-71
2022/06/01 02:51:22;;;;;;;10.57;9.57;;;;;;;;;;5029900;28;20437;-71
2022/06/01 02:53:48;;;;;;;14.57;9.80;;;;;;;;;;5028667;28;20497;-69
2022/06/01 02:56:14;;;;;;;10.93;9.63;;;;;;;;;;5030914;28;20592;-69
2022/06/01 02:58:41;;;;;;;10.40;9.30;;;;;;;;;;5029308;28;20890;-69
2022/06/01 03:01:07;;;;;;;11.90;10.57;;;;;;;;;;5030390;28;20488;-66
2022/06/01 03:03:34;;;;;;;11.50;10.43;;;;;;;;;;5030204;28;20525;-66
2022/06/01 03:06:00;;;;;;;12.03;10.70;;;;;;;;;;5029376;28;20482;-69
2022/06/01 03:08:26;;;;;;;12.03;10.93;;;;;;;;;;5028697;28;20449;-71
2022/06/01 03:10:53;;;;;;;13.43;10.70;;;;;;;;;;5028296;28;20411;-70
2022/06/01 03:13:23;;;;;;;12.23;11.00;;;;;;;;;;5029924;28;20525;-68
2022/06/01 03:15:49;;;;;;;13.40;11.20;;;;;;;;;;5029922;28;20538;-67
2022/06/01 03:18:15;;;;;;;13.23;11.83;;;;;;;;;;5029775;28;20858;-67
2022/06/01 03:20:42;;;;;;;16.03;11.27;;;;;;;;;;5029387;28;20450;-66
2022/06/01 03:23:08;;;;;;;10.57;9.50;;;;;;;;;;5030028;28;20171;-67
2022/06/01 03:25:37;;;;;;;12.13;11.03;;;;;;;;;;5029783;28;20493;-67
2022/06/01 03:28:03;;;;;;;11.97;10.67;;;;;;;;;;5029117;28;20453;-67
2022/06/01 03:30:29;;;;;;;12.43;10.13;;;;;;;;;;5029360;28;20410;-66
2022/06/01 03:32:55;;;;;;;11.83;9.90;;;;;;;;;;5029828;28;20493;-67
2022/06/01 03:35:22;;;;;;;10.77;9.77;;;;;;;;;;5028336;28;20722;-68
2022/06/01 03:37:49;;;;;;;10.70;9.70;;;;;;;;;;5029353;28;20407;-67
2022/06/01 03:40:18;;;;;;;13.83;10.50;;;;;;;;;;5028646;28;20406;-67
2022/06/01 03:42:44;;;;;;;11.80;10.60;;;;;;;;;;5029918;28;20428;-68
2022/06/01 03:47:58;;;;;;;12.80;11.50;;;;;;;;;;5029566;28;20412;-67
2022/06/01 03:50:25;;;;;;;18.40;14.10;;;;;;;;;;5026908;28;20405;-68
2022/06/01 03:52:51;;;;;;;21.60;15.57;;;;;;;;;;5029724;28;20448;-67
2022/06/01 03:55:17;;;;;;;22.70;16.40;;;;;;;;;;5028873;28;20457;-67
2022/06/01 03:57:44;;;;;;;27.30;19.83;;;;;;;;;;5028582;28;20410;-68
2022/06/01 04:00:14;;;;;;;31.57;20.70;;;;;;;;;;5027903;28;20906;-68
2022/06/01 04:02:41;;;;;;;35.43;22.07;;;;;;;;;;5029585;28;20444;-68
2022/06/01 04:05:07;;;;;;;27.10;21.57;;;;;;;;;;5027967;28;20405;-68
2022/06/01 04:07:34;;;;;;;26.37;22.63;;;;;;;;;;5029048;28;20768;-67
2022/06/01 04:09:59;;;;;;;29.07;22.50;;;;;;;;;;5028253;28;20431;-67
2022/06/01 04:12:26;;;;;;;32.73;23.80;;;;;;;;;;5029210;28;20965;-67
2022/06/01 04:14:52;;;;;;;35.37;22.37;;;;;;;;;;5028789;28;20171;-68
2022/06/01 04:17:18;;;;;;;31.10;24.57;;;;;;;;;;5028907;28;20458;-68
2022/06/01 04:19:44;;;;;;;37.43;25.47;;;;;;;;;;5022234;28;20484;-67
2022/06/01 04:22:10;;;;;;;36.53;25.37;;;;;;;;;;5027786;28;20408;-68
2022/06/01 04:24:37;;;;;;;35.37;25.80;;;;;;;;;;5027552;28;20418;-68
2022/06/01 04:27:03;;;;;;;37.13;26.53;;;;;;;;;;5036083;28;20536;-68
2022/06/01 04:29:29;;;;;;;41.57;26.10;;;;;;;;;;5047679;28;20441;-68
2022/06/01 04:32:01;;;;;;;36.87;28.70;;;;;;;;;;5049072;28;20413;-68
2022/06/01 04:34:27;;;;;;;31.80;25.13;;;;;;;;;;5047623;28;20283;-68
2022/06/01 04:36:54;;;;;;;39.90;28.27;;;;;;;;;;5048410;28;20500;-68
2022/06/01 04:39:20;;;;;;;42.60;27.60;;;;;;;;;;5047508;28;20878;-68
2022/06/01 04:41:46;;;;;;;38.70;29.07;;;;;;;;;;5047887;28;20409;-68
2022/06/01 04:44:12;;;;;;;38.70;27.47;;;;;;;;;;5046419;28;20527;-68
2022/06/01 04:46:38;;;;;;;39.13;26.10;;;;;;;;;;5045539;28;20254;-68
2022/06/01 04:49:04;;;;;;;33.57;26.33;;;;;;;;;;5042772;28;20205;-68
2022/06/01 04:51:30;;;;;;;32.07;26.33;;;;;;;;;;5045550;28;20951;-68
2022/06/01 04:53:56;;;;;;;39.43;27.97;;;;;;;;;;5046033;28;20451;-68
2022/06/01 04:56:22;;;;;;;32.80;26.37;;;;;;;;;;5045282;28;20911;-68
2022/06/01 04:58:48;;;;;;;33.60;26.50;;;;;;;;;;5048288;28;20950;-69
2022/06/01 05:01:14;;;;;;;33.03;25.80;;;;;;;;;;5049688;28;20472;-69
2022/06/01 05:03:40;;;;;;;41.10;25.63;;;;;;;;;;5048885;28;20849;-68
2022/06/01 05:06:06;;;;;;;41.60;24.13;;;;;;;;;;5049096;28;20171;-69
2022/06/01 05:08:32;;;;;;;29.73;23.77;;;;;;;;;;5049228;28;20985;-68
2022/06/01 05:10:58;;;;;;;24.63;21.13;;;;;;;;;;5063864;28;20405;-69
2022/06/01 05:13:25;;;;;;;23.70;20.63;;;;;;;;;;5059902;28;20544;-70
2022/06/01 05:15:52;;;;;;;23.73;21.17;;;;;;;;;;5052356;28;20452;-71
2022/06/01 05:18:18;;;;;;;22.93;20.47;;;;;;;;;;5041046;28;20438;-72
2022/06/01 05:20:44;;;;;;;23.63;21.13;;;;;;;;;;5031924;28;20929;-71
2022/06/01 05:23:11;;;;;;;21.73;19.17;;;;;;;;;;5038243;28;20414;-71
2022/06/01 05:25:37;;;;;;;25.97;21.37;;;;;;;;;;5041706;28;20439;-70
2022/06/01 05:28:03;;;;;;;24.60;19.20;;;;;;;;;;5043468;28;20884;-69
2022/06/01 05:30:29;;;;;;;26.00;19.67;;;;;;;;;;5041375;28;20514;-69
2022/06/01 05:32:55;;;;;;;21.77;19.57;;;;;;;;;;5046990;28;20459;-68
2022/06/01 05:35:21;;;;;;;28.10;21.37;;;;;;;;;;5049246;28;20441;-69
2022/06/01 05:37:47;;;;;;;26.43;19.10;;;;;;;;;;5047660;28;20254;-68
2022/06/01 05:40:13;;;;;;;21.20;18.90;;;;;;;;;;5030479;28;20429;-69
2022/06/01 05:42:39;;;;;;;22.30;18.33;;;;;;;;;;5031556;28;20390;-68
2022/06/01 05:45:06;;;;;;;22.43;17.40;;;;;;;;;;5032291;28;20398;-69
2022/06/01 05:47:34;;;;;;;19.77;17.80;;;;;;;;;;5035391;28;20402;-68
2022/06/01 05:50:00;;;;;;;22.90;19.07;;;;;;;;;;5050968;28;20418;-69
2022/06/01 05:52:26;;;;;;;19.40;17.40;;;;;;;;;;5054683;28;21020;-68
2022/06/01 05:54:52;;;;;;;19.50;17.60;;;;;;;;;;5050475;28;20417;-68
2022/06/01 05:57:18;;;;;;;19.20;17.20;;;;;;;;;;5034139;28;20674;-67
2022/06/01 05:59:44;;;;;;;20.67;18.20;;;;;;;;;;5044907;28;20495;-70
2022/06/01 06:02:11;;;;;;;25.10;18.50;;;;;;;;;;5034978;28;20175;-68
2022/06/01 06:04:37;;;;;;;22.57;18.87;;;;;;;;;;5032671;28;20187;-68
2022/06/01 06:07:03;;;;;;;19.53;17.50;;;;;;;;;;5033436;28;20415;-68
2022/06/01 06:09:29;;;;;;;19.23;17.37;;;;;;;;;;5038172;28;20524;-68
2022/06/01 06:11:56;;;;;;;28.00;19.53;;;;;;;;;;5039783;28;20455;-67
2022/06/01 06:14:22;;;;;;;19.50;17.80;;;;;;;;;;5044065;28;20426;-68
2022/06/01 06:16:48;;;;;;;22.00;19.90;;;;;;;;;;5046075;28;20457;-67
2022/06/01 06:19:15;;;;;;;20.23;18.20;;;;;;;;;;5043972;28;20434;-70
2022/06/01 06:21:41;;;;;;;21.03;19.30;;;;;;;;;;5038774;28;20898;-70
2022/06/01 06:24:08;;;;;;;20.30;18.50;;;;;;;;;;5036538;28;20411;-70
2022/06/01 06:26:35;;;;;;;20.87;19.17;;;;;;;;;;5038592;28;20509;-70
2022/06/01 06:29:02;;;;;;;20.70;18.90;;;;;;;;;;5032691;28;20450;-69
2022/06/01 06:31:29;;;;;;;20.30;18.40;;;;;;;;;;5033372;28;20579;-69
2022/06/01 06:33:55;;;;;;;18.90;17.00;;;;;;;;;;5042350;28;20453;-69
2022/06/01 06:36:21;;;;;;;17.73;16.23;;;;;;;;;;5037879;28;20496;-69
2022/06/01 06:38:47;;;;;;;19.03;17.43;;;;;;;;;;5045284;28;20457;-68
2022/06/01 06:41:14;;;;;;;25.20;18.57;;;;;;;;;;5037178;28;20171;-67
2022/06/01 06:43:40;;;;;;;16.97;15.27;;;;;;;;;;5038466;28;20472;-67
2022/06/01 06:46:09;;;;;;;18.30;16.33;;;;;;;;;;5036262;28;20446;-68
2022/06/01 06:48:35;;;;;;;18.57;16.93;;;;;;;;;;5044460;28;20438;-68
2022/06/01 06:51:01;;;;;;;17.03;15.43;;;;;;;;;;5033847;28;20418;-67
2022/06/01 06:53:28;;;;;;;14.67;13.47;;;;;;;;;;5045544;28;20501;-68
2022/06/01 06:55:54;;;;;;;15.63;14.23;;;;;;;;;;5043359;28;20442;-68
2022/06/01 06:58:20;;;;;;;16.00;14.60;;;;;;;;;;5032702;28;21014;-68
2022/06/01 07:00:46;;;;;;;14.47;12.97;;;;;;;;;;5043523;28;20441;-68
2022/06/01 07:03:13;;;;;;;13.57;12.37;;;;;;;;;;5040864;28;20311;-68
2022/06/01 07:08:25;;;;;;;13.17;12.17;;;;;;;;;;5045680;28;20485;-68
2022/06/01 07:10:51;;;;;;;12.63;11.63;;;;;;;;;;5041777;28;20417;-68
2022/06/01 07:13:17;;;;;;;10.67;9.57;;;;;;;;;;5043937;28;20432;-69
2022/06/01 07:15:43;;;;;;;10.07;9.13;;;;;;;;;;5032208;28;20485;-68
2022/06/01 07:18:09;;;;;;;8.90;8.10;;;;;;;;;;5032749;28;20791;-68
2022/06/01 07:20:35;;;;;;;8.70;8.00;;;;;;;;;;5043976;28;20724;-69
2022/06/01 07:23:02;;;;;;;7.37;6.70;;;;;;;;;;5047646;28;20409;-69
2022/06/01 07:25:29;;;;;;;13.67;7.30;;;;;;;;;;5054861;28;20421;-69
2022/06/01 07:27:55;;;;;;;5.90;5.40;;;;;;;;;;5033409;28;20441;-70
2022/06/01 07:30:21;;;;;;;5.47;4.97;;;;;;;;;;5032474;28;20531;-70
2022/06/01 07:32:48;;;;;;;7.57;5.50;;;;;;;;;;5032448;28;20167;-70
2022/06/01 07:35:15;;;;;;;6.73;5.23;;;;;;;;;;5032386;28;20194;-69
2022/06/01 07:43:11;;;;;;;4.83;4.40;;;;;;;;;;5044809;28;20220;-68
2022/06/01 07:45:42;;;;;;;4.78;4.38;;;;;;;;;;5043382;28;20179;-69
2022/06/01 07:48:08;;;;;;;5.90;4.40;;;;;;;;;;5046097;28;20201;-69
2022/06/01 07:50:35;;;;;;;16.65;6.07;;;;;;;;;;5046632;28;20189;-69
2022/06/01 07:53:01;;;;;;;4.83;4.43;;;;;;;;;;5053721;28;20193;-69
2022/06/01 07:55:28;;;;;;;5.63;4.63;;;;;;;;;;5046668;28;20191;-69
2022/06/01 07:57:54;;;;;;;15.80;5.90;;;;;;;;;;5046039;28;20182;-68
2022/06/01 08:00:20;;;;;;;14.70;5.18;;;;;;;;;;5037085;28;20551;-69
2022/06/01 08:02:46;;;;;;;5.82;5.30;;;;;;;;;;5046884;28;20177;-69
2022/06/01 08:05:13;;;;;;;5.85;3.42;;;;;;;;;;5044414;28;20163;-70
2022/06/01 08:07:40;;;;;;;5.15;3.47;;;;;;;;;;5045917;28;20222;-70
2022/06/01 08:10:06;;;;;;;12.70;5.75;;;;;;;;;;5044292;28;20229;-70
2022/06/01 08:15:17;;;;;;;11.93;4.20;;;;;;;;;;5036805;28;21782;-70
2022/06/01 08:17:46;;;;;;;3.88;3.58;;;;;;;;;;5031601;28;20179;-69
2022/06/01 08:20:12;;;;;;;5.95;3.78;;;;;;;;;;5040529;28;20224;-70
2022/06/01 08:22:39;;;;;;;7.70;3.78;;;;;;;;;;5046773;28;20236;-70
2022/06/01 08:25:05;;;;;;;3.80;3.50;;;;;;;;;;5039346;28;20263;-68
2022/06/01 08:27:31;;;;;;;10.55;4.78;;;;;;;;;;5034223;28;20619;-70
2022/06/01 08:29:57;;;;;;;4.88;3.47;;;;;;;;;;5044697;28;20307;-70
2022/06/01 08:32:23;;;;;;;9.18;3.58;;;;;;;;;;5044532;28;20233;-69
2022/06/01 08:34:49;;;;;;;8.50;4.00;;;;;;;;;;5044927;28;20170;-70
2022/06/01 08:37:15;;;;;;;4.35;3.75;;;;;;;;;;5044275;28;20198;-70
2022/06/01 08:39:41;;;;;;;4.70;3.03;;;;;;;;;;5038140;28;20191;-69
2022/06/01 08:42:11;;;;;;;4.07;3.53;;;;;;;;;;5033129;28;20200;-69
2022/06/01 08:44:39;;;;;;;5.32;3.28;;;;;;;;;;5031158;28;20179;-68
2022/06/01 08:47:20;;;;;;;10.93;4.28;;;;;;;;;;5031777;28;20736;-68
2022/06/01 08:49:46;;;;;;;3.78;3.47;;;;;;;;;;5035731;28;20297;-71
2022/06/01 08:52:13;;;;;;;5.40;3.50;;;;;;;;;;5035427;28;20653;-71
2022/06/01 08:54:39;;;;;;;8.68;4.35;;;;;;;;;;5031762;28;20174;-70
2022/06/01 08:57:19;;;;;;;6.10;3.88;;;;;;;;;;5040950;28;20299;-70
2022/06/01 09:00:03;;;;;;;11.32;3.90;;;;;;;;;;5041250;28;20272;-69
2022/06/01 09:02:45;;;;;;;4.15;3.25;;;;;;;;;;5045845;28;20163;-69
2022/06/01 09:05:29;;;;;;;3.70;3.40;;;;;;;;;;5043399;28;20181;-70
2022/06/01 09:08:10;;;;;;;3.92;2.88;;;;;;;;;;5036065;28;20504;-70
2022/06/01 09:10:42;;;;;;;3.13;2.90;;;;;;;;;;5044980;28;20190;-70
2022/06/01 09:13:19;;;;;;;4.90;3.05;;;;;;;;;;5046830;28;20195;-71
2022/06/01 09:15:47;;;;;;;26.92;4.13;;;;;;;;;;5033359;28;20196;-70
2022/06/01 09:18:14;;;;;;;6.18;2.50;;;;;;;;;;5029718;28;20195;-70
2022/06/01 09:23:25;;;;;;;5.18;2.85;;;;;;;;;;5039721;28;20541;-69
2022/06/01 09:25:53;;;;;;;2.83;2.17;;;;;;;;;;5041716;28;20170;-70
2022/06/01 09:28:20;;;;;;;3.75;2.60;;;;;;;;;;5042331;28;20198;-70
2022/06/01 09:30:50;;;;;;;10.82;2.95;;;;;;;;;;5044699;28;20171;-69
2022/06/01 09:33:34;;;;;;;3.17;2.50;;;;;;;;;;5043693;28;20178;-70
2022/06/01 09:36:09;;;;;;;3.20;2.25;;;;;;;;;;5026941;28;20202;-70
2022/06/01 09:38:44;;;;;;;3.33;2.40;;;;;;;;;;5030764;28;20200;-70
2022/06/01 09:41:11;;;;;;;6.82;3.00;;;;;;;;;;5031021;28;20264;-68
2022/06/01 09:43:41;;;;;;;8.38;2.60;;;;;;;;;;5036889;28;20171;-70
2022/06/01 09:46:07;;;;;;;5.25;2.55;;;;;;;;;;5047884;28;20516;-70
2022/06/01 09:48:35;;;;;;;9.13;2.90;;;;;;;;;;5046854;28;20201;-69
2022/06/01 09:51:10;;;;;;;12.38;3.00;;;;;;;;;;5041147;28;20179;-71
2022/06/01 09:53:56;;;;;;;3.22;2.08;;;;;;;;;;5040945;28;20166;-70
2022/06/01 09:56:32;;;;;;;4.32;2.53;;;;;;;;;;5032219;28;20206;-69
2022/06/01 10:07:24;;;;;;;15.73;4.10;;;;;;;;;;5035468;28;20209;-69
2022/06/01 10:10:00;;;;;;;2.90;2.60;;;;;;;;;;5040909;28;20448;-70
2022/06/01 10:12:41;;;;;;;4.50;2.90;;;;;;;;;;5049156;28;20519;-67
2022/06/01 10:15:14;;;;;;;4.47;3.00;;;;;;;;;;5048329;28;20504;-68
2022/06/01 10:17:43;;;;;;;3.83;3.43;;;;;;;;;;5041471;28;20543;-69
2022/06/01 10:20:15;;;;;;;5.00;3.00;;;;;;;;;;5039061;28;20436;-71
2022/06/01 10:22:56;;;;;;;7.87;2.80;;;;;;;;;;5038675;28;20504;-70
2022/06/01 10:25:26;;;;;;;9.00;3.60;;;;;;;;;;5033567;28;20417;-70
2022/06/01 10:27:58;;;;;;;3.17;2.87;;;;;;;;;;5039620;28;20891;-69
2022/06/01 10:30:28;;;;;;;3.70;3.03;;;;;;;;;;5044085;28;20460;-69
2022/06/01 10:32:57;;;;;;;3.77;3.10;;;;;;;;;;5043887;28;20417;-69
2022/06/01 10:35:35;;;;;;;4.23;2.27;;;;;;;;;;5049991;28;20507;-69
2022/06/01 10:38:05;;;;;;;3.50;2.60;;;;;;;;;;5030713;28;20393;-70
2022/06/01 10:40:41;;;;;;;3.03;2.73;;;;;;;;;;5030415;28;20410;-69
2022/06/01 10:43:17;;;;;;;8.03;2.83;;;;;;;;;;5030643;28;20397;-70
2022/06/01 10:45:47;;;;;;;4.20;2.60;;;;;;;;;;5030652;28;20438;-68
2022/06/01 10:48:14;;;;;;;21.07;4.10;;;;;;;;;;5030277;28;20225;-70
2022/06/01 10:50:46;;;;;;;7.43;2.93;;;;;;;;;;5038177;28;20253;-70
2022/06/01 10:53:24;;;;;;;5.60;2.43;;;;;;;;;;5041729;28;20406;-69
2022/06/01 10:55:50;;;;;;;5.83;2.83;;;;;;;;;;5044136;28;20450;-69
2022/06/01 10:58:23;;;;;;;3.40;2.50;;;;;;;;;;5028805;28;20418;-71
2022/06/01 11:00:50;;;;;;;5.63;2.60;;;;;;;;;;5033776;28;20509;-69
2022/06/01 11:03:26;;;;;;;4.40;2.30;;;;;;;;;;5047647;28;20401;-69
2022/06/01 11:06:00;;;;;;;3.10;2.57;;;;;;;;;;5050557;28;20432;-70
2022/06/01 11:08:41;;;;;;;3.70;2.70;;;;;;;;;;5048763;28;20848;-70
2022/06/01 11:11:12;;;;;;;3.43;2.60;;;;;;;;;;5044717;28;20413;-70
2022/06/01 11:13:46;;;;;;;4.47;3.00;;;;;;;;;;5037266;28;20432;-70
2022/06/01 11:16:12;;;;;;;4.23;3.23;;;;;;;;;;5046078;28;20451;-70
2022/06/01 11:18:59;;;;;;;5.13;3.00;;;;;;;;;;5036253;28;20470;-70
2022/06/01 11:21:43;;;;;;;5.40;2.90;;;;;;;;;;5009698;28;20258;-70
2022/06/01 11:24:28;;;;;;;5.17;3.33;;;;;;;;;;5032599;28;20410;-70
2022/06/01 11:27:03;;;;;;;5.93;3.07;;;;;;;;;;5032123;28;20444;-68
2022/06/01 11:29:35;;;;;;;4.67;2.70;;;;;;;;;;5031667;28;20547;-69
2022/06/01 11:32:04;;;;;;;5.57;2.90;;;;;;;;;;5031940;28;20437;-69
2022/06/01 11:34:36;;;;;;;4.40;3.47;;;;;;;;;;5041025;28;20939;-69
2022/06/01 11:37:04;;;;;;;5.40;2.87;;;;;;;;;;5037130;28;20464;-69
2022/06/01 11:39:39;;;;;;;5.07;2.70;;;;;;;;;;5032091;28;20468;-70
2022/06/01 11:42:17;;;;;;;4.37;2.70;;;;;;;;;;5031725;28;20419;-70
2022/06/01 11:44:50;;;;;;;2.70;2.33;;;;;;;;;;5045342;28;20558;-69
2022/06/01 11:47:17;;;;;;;5.00;2.87;;;;;;;;;;5044846;28;20416;-70
2022/06/01 11:49:45;;;;;;;5.53;2.80;;;;;;;;;;5035305;28;20917;-69
2022/06/01 11:52:23;;;;;;;3.07;2.40;;;;;;;;;;5045432;28;20970;-69
2022/06/01 11:54:56;;;;;;;7.47;3.20;;;;;;;;;;5031668;28;20429;-69
2022/06/01 11:57:22;;;;;;;83.47;12.60;;;;;;;;;;5032262;28;20456;-69
2022/06/01 11:59:54;;;;;;;4.50;3.30;;;;;;;;;;5034128;28;20432;-69
2022/06/01 12:02:40;;;;;;;3.77;3.33;;;;;;;;;;5044476;28;20175;-69
2022/06/01 12:05:08;;;;;;;4.50;2.97;;;;;;;;;;5030521;28;20413;-69
2022/06/01 12:07:39;;;;;;;3.63;2.87;;;;;;;;;;5033421;28;20417;-69
2022/06/01 12:10:05;;;;;;;5.87;3.17;;;;;;;;;;5037036;28;20437;-70
2022/06/01 12:12:37;;;;;;;15.83;3.40;;;;;;;;;;5046872;28;20508;-70
2022/06/01 12:15:15;;;;;;;4.03;2.50;;;;;;;;;;5044587;28;20413;-70
2022/06/01 12:18:01;;;;;;;5.00;2.77;;;;;;;;;;5043991;28;20429;-72
2022/06/01 12:20:33;;;;;;;4.80;2.87;;;;;;;;;;5031736;28;20436;-71
2022/06/01 12:28:46;;;;;;;2.50;2.30;;;;;;;;;;5047587;22;20498;-66
2022/06/01 12:31:13;;;;;;;5.97;3.47;;;;;;;;;;4987787;28;20431;-66
2022/06/01 12:33:58;;;;;;;3.80;2.30;;;;;;;;;;4988579;28;20428;-68
2022/06/01 12:36:25;;;;;;;6.00;3.30;;;;;;;;;;4987808;28;20451;-67
2022/06/01 12:38:51;;;;;;;23.83;4.03;;;;;;;;;;4987676;28;20432;-68
2022/06/01 12:41:22;;;;;;;5.03;2.90;;;;;;;;;;4988606;28;20522;-67
2022/06/01 12:43:53;;;;;;;9.67;3.13;;;;;;;;;;4988460;28;20911;-67
2022/06/01 12:46:31;;;;;;;11.83;3.27;;;;;;;;;;4990382;28;20967;-68
2022/06/01 12:49:15;;;;;;;17.90;4.10;;;;;;;;;;4987345;28;20993;-67
2022/06/01 12:51:43;;;;;;;7.73;3.63;;;;;;;;;;4987421;28;21136;-67
2022/06/01 12:54:11;;;;;;;6.93;3.20;;;;;;;;;;4988889;28;20419;-66
2022/06/01 12:56:47;;;;;;;12.73;3.67;;;;;;;;;;4988927;28;20566;-68
2022/06/01 12:59:16;;;;;;;4.83;3.40;;;;;;;;;;4987615;28;20523;-67
2022/06/01 13:01:42;;;;;;;18.20;4.57;;;;;;;;;;4987864;28;20447;-68
2022/06/01 13:04:07;;;;;;;16.30;4.20;;;;;;;;;;4989643;28;20451;-68
2022/06/01 13:06:34;;;;;;;5.47;3.80;;;;;;;;;;4988216;28;20520;-69
2022/06/01 13:09:01;;;;;;;6.00;3.70;;;;;;;;;;4988147;28;20619;-68
2022/06/01 13:11:29;;;;;;;13.07;4.37;;;;;;;;;;4988810;28;20830;-68
2022/06/01 13:13:59;;;;;;;7.40;4.30;;;;;;;;;;4989334;28;20503;-66
2022/06/01 13:16:33;;;;;;;6.03;3.43;;;;;;;;;;4984954;28;20555;-66
2022/06/01 13:19:14;;;;;;;9.73;4.70;;;;;;;;;;4984671;28;20502;-66
2022/06/01 13:21:40;;;;;;;14.60;4.93;;;;;;;;;;4991755;28;20420;-65
2022/06/01 13:24:07;;;;;;;14.57;4.70;;;;;;;;;;4992086;28;20416;-67
2022/06/01 13:26:38;;;;;;;7.77;4.10;;;;;;;;;;4992583;28;20440;-66
2022/06/01 13:29:16;;;;;;;12.20;4.00;;;;;;;;;;4991645;28;20549;-69
2022/06/01 13:31:43;;;;;;;13.73;4.40;;;;;;;;;;4991801;28;21130;-67
2022/06/01 13:34:17;;;;;;;13.90;4.30;;;;;;;;;;4992248;28;20466;-67
2022/06/01 13:36:44;;;;;;;13.90;3.90;;;;;;;;;;4990941;28;20525;-67
2022/06/01 13:39:13;;;;;;;14.97;3.83;;;;;;;;;;4991429;28;20531;-67
2022/06/01 13:41:39;;;;;;;11.60;3.70;;;;;;;;;;4992157;28;20465;-67
2022/06/01 13:44:09;;;;;;;16.33;3.97;;;;;;;;;;4992516;28;20853;-67
2022/06/01 13:46:46;;;;;;;12.20;3.87;;;;;;;;;;4992635;28;20420;-67
2022/06/01 13:49:15;;;;;;;13.73;3.77;;;;;;;;;;4990660;28;20590;-66
2022/06/01 13:51:41;;;;;;;12.40;3.67;;;;;;;;;;4992341;28;20424;-67
2022/06/01 13:54:22;;;;;;;9.93;4.17;;;;;;;;;;4991498;28;20495;-66
2022/06/01 13:56:49;;;;;;;4.57;3.10;;;;;;;;;;4991109;28;20625;-67
2022/06/01 13:59:33;;;;;;;4.47;3.23;;;;;;;;;;4990585;28;20519;-67
2022/06/01 14:02:04;;;;;;;11.80;3.80;;;;;;;;;;4991411;28;20417;-67
2022/06/01 14:04:39;;;;;;;9.63;4.20;;;;;;;;;;4990838;28;20432;-67
2022/06/01 14:07:06;;;;;;;8.17;3.70;;;;;;;;;;4991180;28;20412;-67
2022/06/01 14:09:34;;;;;;;11.23;4.17;;;;;;;;;;4990590;28;20530;-67
2022/06/01 14:12:01;;;;;;;42.90;5.63;;;;;;;;;;4991244;28;20901;-68
2022/06/01 14:14:29;;;;;;;6.43;2.70;;;;;;;;;;4990311;28;20517;-67
2022/06/01 14:16:56;;;;;;;10.67;2.63;;;;;;;;;;4988574;28;20901;-65
2022/06/01 14:19:23;;;;;;;5.87;2.60;;;;;;;;;;4990078;28;20860;-67
2022/06/01 14:21:51;;;;;;;9.30;2.60;;;;;;;;;;4990870;28;20471;-66
2022/06/01 14:24:17;;;;;;;7.40;2.80;;;;;;;;;;4990587;28;20770;-66
2022/06/01 14:29:27;;;;;;;13.20;3.60;;;;;;;;;;4989999;28;20486;-67
2022/06/01 14:31:57;;;;;;;18.30;3.67;;;;;;;;;;4991433;28;20796;-67
2022/06/01 14:34:24;;;;;;;15.50;4.63;;;;;;;;;;4990409;28;20221;-68
2022/06/01 14:36:50;;;;;;;8.33;3.10;;;;;;;;;;4990535;28;20467;-66
2022/06/01 14:39:19;;;;;;;7.83;3.53;;;;;;;;;;4990126;28;20464;-66
2022/06/01 14:41:45;;;;;;;3.70;2.53;;;;;;;;;;4990581;28;20423;-66
2022/06/01 14:44:13;;;;;;;7.30;3.13;;;;;;;;;;4990227;28;20408;-66
2022/06/01 14:46:39;;;;;;;6.97;2.00;;;;;;;;;;4995207;28;20816;-66
2022/06/01 14:49:05;;;;;;;5.20;2.30;;;;;;;;;;4989377;28;20547;-66
2022/06/01 14:51:32;;;;;;;5.73;2.47;;;;;;;;;;4990055;28;20423;-66
2022/06/01 14:53:59;;;;;;;4.27;2.27;;;;;;;;;;4989596;28;20427;-66
2022/06/01 14:56:26;;;;;;;12.30;3.50;;;;;;;;;;4990182;28;20928;-66
2022/06/01 14:58:52;;;;;;;11.33;3.10;;;;;;;;;;4989212;28;20479;-66
2022/06/01 15:01:31;;;;;;;6.93;2.40;;;;;;;;;;4989831;28;20420;-66
2022/06/01 15:03:57;;;;;;;4.50;2.30;;;;;;;;;;4990049;28;20651;-66
2022/06/01 15:06:24;;;;;;;7.83;2.60;;;;;;;;;;4989327;28;20443;-67
2022/06/01 15:08:50;;;;;;;5.53;2.10;;;;;;;;;;4989608;28;20459;-67
2022/06/01 15:11:16;;;;;;;9.70;2.43;;;;;;;;;;5005645;28;20431;-67
2022/06/01 15:13:42;;;;;;;4.13;2.40;;;;;;;;;;4989098;28;20268;-66
2022/06/01 15:16:08;;;;;;;6.53;2.50;;;;;;;;;;4991522;28;20455;-67
2022/06/01 15:18:38;;;;;;;3.13;2.00;;;;;;;;;;4989789;28;20412;-66
2022/06/01 15:21:04;;;;;;;7.33;2.70;;;;;;;;;;4989217;28;20424;-67
2022/06/01 15:23:31;;;;;;;9.17;2.27;;;;;;;;;;4990271;28;20421;-68
2022/06/01 15:25:57;;;;;;;15.20;3.23;;;;;;;;;;4990300;28;20563;-68
2022/06/01 15:28:23;;;;;;;18.33;3.23;;;;;;;;;;4989086;28;20408;-68